EC1AIJ
43.19.77N 005.33.49W
IN73FH aprs.fi
zuletzt gehoert:
2022-08-15T22:00:50Z
zuerst gehoert:
2020-05-24T12:00:31Z

APRS Bimenes [IN73FH], 2 Stunde(n), EC1AIJ [14:04:55, 0s].
EA1FLQ 43.22.00N 005.36.35WIN73EI 6.260km 319°NW12:01:29ZMMDVM DVMega 430.9750/430.9750 CC1
EA1AQK 43.16.49N 005.35.99WIN73EG 6.591km 214°SW11:30:40ZMMDVM MMDVM HS Hat 439.8500/439.8500 CC1(3EA1AQK-1)
EA1GCN 43.19.20N 005.24.60WIN73HH 11.730km 92°E12:00:20Z440 Voice 432.56875MHz +0.0000MHz(3EA1GCN-B)
MMDVM MMDVM HS Hat 432.5688/432.5688 CC1(2EA1GCN)
ED1ZAS 43.27.52N 005.40.17WIN73DL 17.592km 328°NNW12:00:12ZRD985 438.2250/430.6250 CC1
ED1ZAE 43.27.99N 005.40.54WIN73DL 18.578km 328°NNW12:01:12Z2m Voice 145.5875 -0.600 Mhz(3ED1ZAE-C)
400 M. PICO SAN MARTIN (GIJON) 13.2V,30.7C(2ED1ZAE-3)
EA1FHR 43.28.72N 005.26.41WIN73GL 19.492km 28°NNE12:00:56ZMMDVM MMDVM HS Hat 439.1500/439.1500 CC1
EB1GEM 43.30.00N 005.36.07WIN73EM 19.899km 349°N12:01:26ZWX3in1Plus2.0 U=13.3V,T=??.?C/??.?F(3EB1GEM-3)
EA1HWD 43.28.96N 005.26.30WIN73GL 19.960km 28°NNE12:01:25ZMMDVM MMDVM HS Hat 434.2500/434.2500 CC1
EC1AE 43.22.58N 005.47.50WIN73CJ 19.994km 287°WNW12:02:55Z`_%(3EC1AE-9)
EA4ACU 43.29.56N 005.38.92WIN73EL 20.208km 338°NNW12:01:31ZMMDVM MMDVM HS Hat 432.7000/432.7000 CC1(3EA4ACU-1)
EA1IMW 43.14.36N 005.46.93WIN73CF 20.681km 243°WSW12:01:53ZGRUPO RADIO GALENA (GRG) 430.4500/430.4500 CC1(3EA1IMW-1)
EB1DGC 43.12.60N 005.45.59WIN73CF 20.913km 233°SW12:01:10ZMMDVM MMDVM HS Hat 433.4500/433.4500 CC1
EA1ABW 43.24.77N 005.47.77WIN73CJ 21.860km 297°WNW12:00:52ZMMDVM MMDVM HS Hat 439.8250/439.8250 CC1(3EA1ABW-1)
MMDVM MMDVM HS Hat 439.8250/439.8250 CC1(2EA1ABW-2)
EA1IPU 43.26.21N 005.46.62WIN73CK 21.884km 305°NW12:01:04ZMMDVM MMDVM HS Hat 439.8000/439.8000 CC1(3EA1IPU-1)
ED1ZAD 43.07.90N 005.38.52WIN73ED 22.542km 198°SSW11:57:03ZED1ZAD-3 APRS Digi/Igate(3ED1ZAD-3)
LEHU 43.22.63N 005.49.57WIN73CJ 22.715km 285°WNW12:00:03ZHelipuerto del HUCA: LEAS 031100Z 11007KT 060V160 CAVOK 20/16 Q1022 NOSIG=
EA1JW 43.31.35N 005.28.83WIN73GM 22.832km 15°NNE12:00:34ZMMDVM MMDVM HS Hat 436.5000/436.5000 CC1(3EA1JW-3)
EA1HWA 43.12.00N 005.47.40WIN73CE 23.526km 234°SW12:00:50ZMMDVM MMDVM HS Hat 433.4500/433.4500 CC1
EA1HWX 43.19.28N 005.50.98WIN73BH 23.844km 269°W12:01:40ZDMO - UHF 439.7250/431.0000 CC11(3EA1HWX-2)
MMDVM DMO 222.3400/222.3400 CC1(2EA1HWX-10)
EA1DZR 43.31.48N 005.40.00WIN73EM 24.028km 338°NNW12:01:48Z440 MMDVM Voice 433.10000MHz +0.0000MHz, APRS for DMRGateway(3EA1DZR-D)
MMDVM DVMega 431.1000/431.1000 CC1(2EA1DZR-1)
MMDVM MMDVM HS Hat 432.2000/432.2000 CC2(2EA1DZR-2)
MMDVM DV ADER 434.3500/434.3500 CC1(2EA1DZR-4)
EA1L 43.20.38N 005.51.13WIN73BI 24.115km 274°W12:02:28ZWind 020°/003kn, Böen bis 005kn, Temp 21.11c, Regen 0.0mm, letzte 24h 0.0mm, seit 0h 0.0mm, Baro 1020.2h, Hum: 75%(3EA1L-13)
ea1l@ure.es V=13.0V(2EA1L)
33D00 43.21.63N 005.51.13WIN73BI 24.369km 280°W12:01:42Z33-D-00 Protección Civil REMER / Delegación del Gobierno en Asturias
EA1JBU 43.21.85N 005.51.13WIN73BI 24.452km 281°W12:00:06ZEA1JBU(3EA1JBU-1)
EA1FFA 43.31.53N 005.40.64WIN73DM 24.466km 336°NNW12:01:23ZMMDVM MMDVM HS Hat 438.8000/438.8000 CC1(3EA1FFA-1)
EA1JAY 43.21.54N 005.51.34WIN73BI 24.635km 279°W12:00:07ZEA1JAY(3EA1JAY-2)
434.525MHz Nodo TETRA DMO(2EA1JAY-4)
EA1JBD 43.32.24N 005.38.83WIN73EM 24.821km 343°NNW12:00:27ZMMDVM MMDVM HS Hat 431.0375/431.0375 CC1
EA1IEJ 43.31.81N 005.40.64WIN73DM 24.942km 337°NNW12:01:06ZMMDVM DMO 222.3400/222.3400 CC1(3EA1IEJ-11)
MMDVM MMDVM HS Hat 438.8500/438.8500 CC6(2EA1IEJ-1)
LEMR 43.25.83N 005.49.60WIN73CK 24.942km 298°WNW12:00:04ZAerodromo de la Morgal (123.500MHz): LEAS 031100Z 11007KT 060V160 CAVOK 20/16 Q1022 NOSIG=
LEGM 43.26.15N 005.49.84WIN73CK 25.507km 299°WNW12:00:03ZHelipuerto de La Morgal (123.500MHz): LEAS 031100Z 11007KT 060V160 CAVOK 20/16 Q1022 NOSIG=
EA1HJA 43.21.47N 005.52.09WIN73BI 25.618km 279°W11:59:58Z IN73FL WX3IN1+ 2.0 - V=13.1V,TX TEMP=36.8C(3EA1HJA-2)
IN73FL WX3IN1+ 2.0 - V=13.5V,TX TEMP=44.7C(2EA1HJA)
EB1TK 43.32.22N 005.42.32WIN73DM 26.594km 333°NNW12:00:17ZWind 052°/010kn, Böen bis 014kn, Temp 19.44c, Regen 0.0mm, letzte 24h 0.0mm, seit 0h 0.0mm, Baro 1024.9h, Hum: 87%(3EB1TK-13)
EA1FPN 43.32.39N 005.42.17WIN73DM 26.767km 334°NNW12:01:07ZMMDVM MMDVM HS Hat 439.8750/439.8750 CC1
EA1JBL 43.29.89N 005.47.14WIN73CL 26.846km 316°NW12:03:58ZMMDVM DVMega 435.3000/435.3000 CC1
*Jose*(2EA1JBL-7)
ED1ZAU 43.23.04N 005.52.75WIN73BJ 27.052km 284°WNW12:00:13ZRD625 438.5000/430.9000 CC1
LEEL 43.32.98N 005.41.71WIN73DN 27.494km 336°NNW12:00:04ZHelipuerto de El Musel: LEAS 031100Z 11007KT 060V160 CAVOK 20/16 Q1022 NOSIG=
EA1RCG 43.09.45N 005.49.78WIN73CD 28.971km 230°SW12:00:45ZGRUPO RADIO GALENA (GRG) 430.4500/430.4500 CC1(3EA1RCG-3)
EA1JBE 43.30.90N 005.16.15WIN73IM 31.330km 47°NE11:45:02ZDarío, HamTETRA APRS ea1jbe@ureoviedo.es(3EA1JBE-9)
GRUPO RADIO GALENA (GRG) 430.4500/430.4500 CC1(2EA1JBE-13)
MAIN QTH http://qrz.com/db/ea1jbe(2EA1JBE-1)
ED1ZBF 43.19.16N 005.06.74WIN73KH 35.787km 91°E12:00:14ZRD625 438.4750/430.8750 CC1
ED1ZAY 43.29.47N 005.56.54WIN73AL 36.395km 301°WNW12:00:13ZRD625 438.3000/430.7000 CC1
EA1IQT 43.32.34N 005.54.44WIN73BM 37.146km 310°NW12:00:24ZMMDVM MMDVM HS Hat 433.6250/433.6250 CC1
EA1AHA 43.32.74N 005.54.36WIN73BN 37.544km 311°NW12:00:20ZWind 180°/007kn, Böen bis 009kn, Temp 22.78c, Regen 0.0mm, letzte 24h 0.0mm, seit 0h 0.0mm, Baro 1023.1h, Hum: 65%(3EA1AHA-13)
MMDVM MMDVM HS Hat 432.0000/432.0000 CC1(2EA1AHA)
EA1BCU 43.32.91N 005.55.30WIN73AN 38.699km 310°NW11:57:13ZAnt-QFH U/VHF

aprs.pl 5.0.011w DL3EL © 2006-2021 [5798494]